Terminal Aerodrome Forecast
Issued by NWS

Home | Current Version | Previous Version | Text Only | Print | Product List | Glossary On
Versions: 1 2 3 4 5 6 7 8 9 10 11 12 13 14 15 16 17 18 19 20 21 22 23 24 25 26 27 28 29 30 31 32 33 34 35 36 37 38 39 40 41 42 43 44 45 46 47 48 49 50
000
FTAK31 PANC 082340
TAFASD
TAF
PASD 082340Z 0900/0924 35012KT P6SM FEW025 BKN045 OVC080
     FM090500 35012KT P6SM VCSH SCT030 BKN040
     FM090900 34010KT P6SM -SHSN BKN035 OVC045
     FM091400 34012KT P6SM BKN025 OVC040
     FM091900 34015G25KT 6SM -SHSN SCT025 BKN040
      AMD LTD TO CLD VIS AND WIND=

USA.gov is the U.S. government's official web portal to all federal, state and local government web resources and services.